Time;durP1;ratioP1;P1;durP2;ratioP2;P2;SDS_P1;SDS_P2;PMS_P1;PMS_P2;Temp;Humidity;BMP_temperature;BMP_pressure;BME280_temperature;BME280_humidity;BME280_pressure;Samples;Min_cycle;Max_cycle;Signal;HPM_P1;HPM_P2
2021/06/14 00:00:55;;;;;;;;;;;;;;;15.72;100.00;100100.94;5115905;28;19923;-70
2021/06/14 00:03:21;;;;;;;;;;;;;;;15.85;100.00;100104.94;5115976;28;19916;-70
2021/06/14 00:05:46;;;;;;;;;;;;;;;15.94;100.00;100103.94;5115730;28;19958;-70
2021/06/14 00:08:12;;;;;;;;;;;;;;;15.94;100.00;100101.31;5115702;28;19911;-70
2021/06/14 00:10:38;;;;;;;;;;;;;;;16.00;100.00;100106.75;5115721;28;19913;-70
2021/06/14 00:13:05;;;;;;;;;;;;;;;16.07;100.00;100106.09;5115753;28;19919;-71
2021/06/14 00:18:34;;;;;;;;;;;;;;;16.28;100.00;100095.84;5115609;28;20409;-70
2021/06/14 00:21:00;;;;;;;;;;;;;;;16.34;100.00;100099.66;5115499;28;19959;-70
2021/06/14 00:23:27;;;;;;;;;;;;;;;16.39;100.00;100100.78;5115596;28;19960;-69
2021/06/14 00:25:52;;;;;;;;;;;;;;;16.41;100.00;100095.34;5097111;28;19911;-69
2021/06/14 00:28:18;;;;;;;;;;;;;;;16.37;100.00;100097.50;5115612;28;19926;-70
2021/06/14 00:30:44;;;;;;;;;;;;;;;16.22;100.00;100099.97;5115598;28;19912;-70
2021/06/14 00:33:10;;;;;;;;;;;;;;;16.24;100.00;100092.72;5115040;28;19912;-70
2021/06/14 00:35:36;;;;;;;;;;;;;;;16.12;100.00;100098.50;5115174;28;19911;-70
2021/06/14 00:38:01;;;;;;;;;;;;;;;15.92;100.00;100082.13;5115072;28;20010;-70
2021/06/14 00:40:27;;;;;;;;;;;;;;;15.64;100.00;100074.50;5115477;28;19911;-70
2021/06/14 00:42:52;;;;;;;;;;;;;;;15.75;100.00;100071.53;5115278;28;19912;-70
2021/06/14 00:45:19;;;;;;;;;;;;;;;15.89;100.00;100083.28;5115393;28;20278;-70
2021/06/14 00:47:45;;;;;;;;;;;;;;;15.99;100.00;100085.75;5115048;28;19918;-70
2021/06/14 00:50:11;;;;;;;;;;;;;;;16.09;100.00;100097.00;5115713;28;19912;-70
2021/06/14 00:52:37;;;;;;;;;;;;;;;16.13;100.00;100100.13;5115163;28;19912;-70
2021/06/14 00:55:04;;;;;;;;;;;;;;;16.17;100.00;100104.13;5114839;28;19912;-70
2021/06/14 00:57:29;;;;;;;;;;;;;;;16.12;100.00;100107.25;5114944;28;19998;-70
2021/06/14 00:59:55;;;;;;;;;;;;;;;16.00;100.00;100103.31;5114568;28;20073;-70
2021/06/14 01:02:20;;;;;;;;;;;;;;;15.78;100.00;100104.75;5114559;28;19918;-70
2021/06/14 01:04:45;;;;;;;;;;;;;;;15.64;100.00;100106.19;5114547;28;19916;-70
2021/06/14 01:07:11;;;;;;;;;;;;;;;15.70;100.00;100097.66;5114583;28;19915;-70
2021/06/14 01:09:37;;;;;;;;;;;;;;;15.69;100.00;100097.78;5114841;28;20002;-70
2021/06/14 01:12:08;;;;;;;;;;;;;;;15.64;100.00;100089.50;5114358;28;19951;-70
2021/06/14 01:14:33;;;;;;;;;;;;;;;15.72;100.00;100092.19;5114596;28;19918;-70
2021/06/14 01:17:10;;;;;;;;;;;;;;;15.79;100.00;100088.75;5114527;28;19912;-70
2021/06/14 01:19:41;;;;;;;;;;;;;;;15.97;100.00;100085.13;5114234;28;19912;-70
2021/06/14 01:22:13;;;;;;;;;;;;;;;16.07;100.00;100090.25;5114720;28;19912;-70
2021/06/14 01:24:58;;;;;;;;;;;;;;;15.99;100.00;100083.13;5114288;28;19912;-70
2021/06/14 01:27:38;;;;;;;;;;;;;;;16.09;100.00;100086.44;5113527;28;19919;-70
2021/06/14 01:30:08;;;;;;;;;;;;;;;16.04;100.00;100086.94;5114212;28;19919;-70
2021/06/14 01:32:34;;;;;;;;;;;;;;;15.97;100.00;100085.13;5114100;28;19918;-70
2021/06/14 01:35:00;;;;;;;;;;;;;;;15.89;100.00;100078.00;5113937;28;19911;-70
2021/06/14 01:37:26;;;;;;;;;;;;;;;15.69;100.00;100079.31;5114266;28;19918;-71
2021/06/14 01:39:52;;;;;;;;;;;;;;;15.72;100.00;100086.91;5113886;28;19916;-70
2021/06/14 01:42:17;;;;;;;;;;;;;;;15.79;100.00;100088.75;5114215;28;20375;-70
2021/06/14 01:44:44;;;;;;;;;;;;;;;15.84;100.00;100084.78;5114059;28;19919;-70
2021/06/14 01:47:09;;;;;;;;;;;;;;;15.71;100.00;100082.63;5113954;28;19919;-70
2021/06/14 01:49:35;;;;;;;;;;;;;;;15.73;100.00;100086.75;5113946;28;20298;-71
2021/06/14 01:52:00;;;;;;;;;;;;;;;15.76;100.00;100080.28;5113837;28;19915;-70
2021/06/14 01:54:27;;;;;;;;;;;;;;;15.74;100.00;100079.66;5113789;28;19919;-70
2021/06/14 01:56:53;;;;;;;;;;;;;;;15.43;100.00;100084.69;5113680;28;19912;-71
2021/06/14 01:59:20;;;;;;;;;;;;;;;15.19;100.00;100086.28;5113936;28;19934;-71
2021/06/14 02:01:47;;;;;;;;;;;;;;;15.07;100.00;100077.78;5113801;28;20350;-71
2021/06/14 02:04:13;;;;;;;;;;;;;;;14.81;100.00;100083.13;5113466;28;19911;-71
2021/06/14 02:06:43;;;;;;;;;;;;;;;14.61;100.00;100086.97;5113414;28;20287;-72
2021/06/14 02:09:10;;;;;;;;;;;;;;;14.53;100.00;100079.00;5113575;28;19911;-71
2021/06/14 02:11:39;;;;;;;;;;;;;;;14.48;100.00;100076.81;5113771;28;19935;-72
2021/06/14 02:14:05;;;;;;;;;;;;;;;14.44;100.00;100086.00;5113503;28;19919;-71
2021/06/14 02:16:30;;;;;;;;;;;;;;;14.42;100.00;100082.72;5113443;28;19912;-71
2021/06/14 02:18:56;;;;;;;;;;;;;;;14.28;100.00;100078.00;5113417;28;19919;-72
2021/06/14 02:21:22;;;;;;;;;;;;;;;14.26;100.00;100072.88;5113328;28;19971;-71
2021/06/14 02:23:48;;;;;;;;;;;;;;;14.28;100.00;100065.66;5113331;28;19921;-72
2021/06/14 02:26:13;;;;;;;;;;;;;;;14.38;100.00;100071.66;5113260;28;19974;-71
2021/06/14 02:28:39;;;;;;;;;;;;;;;14.32;100.00;100067.00;5113391;28;19927;-71
2021/06/14 02:31:04;;;;;;;;;;;;;;;14.16;100.00;100067.69;5113275;28;19915;-72
2021/06/14 02:33:30;;;;;;;;;;;;;;;14.24;100.00;100079.28;5113279;28;19912;-72
2021/06/14 02:35:55;;;;;;;;;;;;;;;14.32;100.00;100072.25;5112930;28;19916;-72
2021/06/14 02:38:21;;;;;;;;;;;;;;;14.32;100.00;100074.91;5114532;28;19988;-72
2021/06/14 02:40:46;;;;;;;;;;;;;;;14.24;100.00;100074.84;5117452;28;19912;-72
2021/06/14 02:43:12;;;;;;;;;;;;;;;14.24;100.00;100074.00;5118184;28;19912;-72
2021/06/14 02:45:56;;;;;;;;;;;;;;;14.28;100.00;100068.28;5117340;28;19919;-72
2021/06/14 02:48:22;;;;;;;;;;;;;;;14.17;100.00;100076.41;5117010;28;20010;-72
2021/06/14 02:50:48;;;;;;;;;;;;;;;14.28;100.00;100076.19;5117194;28;20397;-72
2021/06/14 02:53:15;;;;;;;;;;;;;;;14.33;100.00;100071.28;5117309;28;19912;-72
2021/06/14 02:56:01;;;;;;;;;;;;;;;14.19;100.00;100071.84;5117420;28;20409;-71
2021/06/14 02:58:28;;;;;;;;;;;;;;;14.21;100.00;100079.56;5116851;28;19918;-72
2021/06/14 03:00:54;;;;;;;;;;;;;;;14.25;100.00;100078.31;5116486;28;20366;-71
2021/06/14 03:03:19;;;;;;;;;;;;;;;14.22;100.00;100073.34;5116138;28;19990;-72
2021/06/14 03:08:30;;;;;;;;;;;;;;;14.23;100.00;100067.09;5117048;28;20007;-71
2021/06/14 03:10:56;;;;;;;;;;;;;;;14.34;100.00;100075.59;5116791;28;20037;-71
2021/06/14 03:13:21;;;;;;;;;;;;;;;14.50;100.00;100071.38;5116684;28;20390;-71
2021/06/14 03:15:47;;;;;;;;;;;;;;;14.65;100.00;100072.50;5116788;28;19918;-71
2021/06/14 03:18:25;;;;;;;;;;;;;;;14.73;100.00;100074.34;5116553;28;19916;-71
2021/06/14 03:20:53;;;;;;;;;;;;;;;14.82;100.00;100079.50;5116424;28;19943;-71
2021/06/14 03:23:18;;;;;;;;;;;;;;;14.80;100.00;100078.00;5116677;28;20406;-71
2021/06/14 03:25:43;;;;;;;;;;;;;;;14.97;100.00;100081.56;5116071;28;20006;-71
2021/06/14 03:28:27;;;;;;;;;;;;;;;15.06;100.00;100085.88;5114824;28;20003;-71
2021/06/14 03:30:54;;;;;;;;;;;;;;;15.19;100.00;100083.63;5115913;28;20391;-70
2021/06/14 03:33:20;;;;;;;;;;;;;;;15.13;100.00;100088.72;5115278;28;19912;-68
2021/06/14 03:35:47;;;;;;;;;;;;;;;15.24;100.00;100083.97;5116408;28;19935;-68
2021/06/14 03:38:13;;;;;;;;;;;;;;;15.28;100.00;100087.94;5116360;28;19965;-71
2021/06/14 03:40:38;;;;;;;;;;;;;;;15.23;100.00;100095.50;5116535;28;19915;-70
2021/06/14 03:43:05;;;;;;;;;;;;;;;15.24;100.00;100088.41;5116311;28;19912;-70
2021/06/14 03:45:30;;;;;;;;;;;;;;;15.25;100.00;100090.88;5116689;28;20018;-71
2021/06/14 03:47:56;;;;;;;;;;;;;;;15.12;100.00;100090.53;5116242;28;20035;-71
2021/06/14 03:50:22;;;;;;;;;;;;;;;14.95;100.00;100083.50;5115230;28;19938;-71
2021/06/14 03:52:47;;;;;;;;;;;;;;;14.91;100.00;100092.72;5115999;28;19911;-71
2021/06/14 03:55:13;;;;;;;;;;;;;;;14.76;100.00;100089.88;5116028;28;19912;-71
2021/06/14 03:57:39;;;;;;;;;;;;;;;14.62;100.00;100088.63;5116036;28;19944;-71
2021/06/14 04:00:06;;;;;;;;;;;;;;;14.78;100.00;100087.88;5116098;28;20356;-71
2021/06/14 04:02:31;;;;;;;;;;;;;;;14.85;100.00;100089.75;5116433;28;19916;-70
2021/06/14 04:04:57;;;;;;;;;;;;;;;14.98;100.00;100086.66;5116021;28;20275;-71
2021/06/14 04:07:23;;;;;;;;;;;;;;;15.14;100.00;100087.72;5115867;28;19961;-70
2021/06/14 04:09:49;;;;;;;;;;;;;;;15.32;100.00;100091.06;5115961;28;19911;-71
2021/06/14 04:12:14;;;;;;;;;;;;;;;15.41;100.00;100091.94;5110800;28;19919;-71
2021/06/14 04:14:41;;;;;;;;;;;;;;;15.45;100.00;100090.63;5094566;28;19920;-70
2021/06/14 04:17:06;;;;;;;;;;;;;;;15.56;100.00;100088.50;5098313;28;19920;-71
2021/06/14 04:19:32;;;;;;;;;;;;;;;15.50;100.00;100077.78;5095362;28;19924;-71
2021/06/14 04:21:57;;;;;;;;;;;;;;;15.42;100.00;100083.00;5098101;28;19919;-71
2021/06/14 04:24:23;;;;;;;;;;;;;;;15.31;100.00;100077.03;5097737;28;20295;-71
2021/06/14 04:26:48;;;;;;;;;;;;;;;15.27;100.00;100088.91;5104018;28;19915;-70
2021/06/14 04:29:14;;;;;;;;;;;;;;;15.30;100.00;100083.31;5102344;28;20326;-71
2021/06/14 04:31:39;;;;;;;;;;;;;;;15.28;100.00;100085.28;5096214;28;20387;-71
2021/06/14 04:34:04;;;;;;;;;;;;;;;15.28;100.00;100082.66;5095869;28;19920;-71
2021/06/14 04:36:29;;;;;;;;;;;;;;;15.22;100.00;100083.31;5101711;28;19916;-71
2021/06/14 04:38:55;;;;;;;;;;;;;;;15.28;100.00;100079.19;5097127;28;20014;-71
2021/06/14 04:41:20;;;;;;;;;;;;;;;15.44;100.00;100086.34;5105761;28;19960;-71
2021/06/14 04:43:45;;;;;;;;;;;;;;;15.59;100.00;100089.97;5107107;28;19916;-71
2021/06/14 04:46:11;;;;;;;;;;;;;;;15.71;100.00;100096.66;5096058;28;19920;-71
2021/06/14 04:48:36;;;;;;;;;;;;;;;15.84;100.00;100098.81;5094014;28;20379;-71
2021/06/14 04:51:01;;;;;;;;;;;;;;;15.92;100.00;100092.69;5094277;28;19920;-71
2021/06/14 04:53:27;;;;;;;;;;;;;;;15.84;100.00;100092.72;5102195;28;20295;-71
2021/06/14 04:55:53;;;;;;;;;;;;;;;15.90;100.00;100092.06;5095267;28;19916;-71
2021/06/14 04:58:18;;;;;;;;;;;;;;;15.84;100.00;100090.06;5101196;28;19924;-71
2021/06/14 05:03:46;;;;;;;;;;;;;;;15.96;100.00;100102.81;5099284;28;19922;-71
2021/06/14 05:06:12;;;;;;;;;;;;;;;15.88;100.00;100104.59;5074609;28;19916;-71
2021/06/14 05:08:38;;;;;;;;;;;;;;;15.77;100.00;100105.75;5091550;28;19998;-71
2021/06/14 05:11:03;;;;;;;;;;;;;;;15.79;100.00;100104.59;5098165;28;20002;-71
2021/06/14 05:13:28;;;;;;;;;;;;;;;16.01;100.00;100104.94;5097395;28;19955;-71
2021/06/14 05:15:53;;;;;;;;;;;;;;;16.27;100.00;100110.91;5091522;28;19920;-71
2021/06/14 05:18:19;;;;;;;;;;;;;;;16.58;100.00;100106.72;5095929;28;19911;-71
2021/06/14 05:20:44;;;;;;;;;;;;;;;16.26;100.00;100109.22;5095709;28;19907;-71
2021/06/14 05:23:10;;;;;;;;;;;;;;;16.14;100.00;100100.00;5097565;28;20011;-71
2021/06/14 05:25:36;;;;;;;;;;;;;;;16.33;100.00;100106.75;5095010;28;20305;-71
2021/06/14 05:28:01;;;;;;;;;;;;;;;16.40;100.00;100101.59;5108547;28;20454;-71
2021/06/14 05:30:26;;;;;;;;;;;;;;;16.66;100.00;100106.69;5102654;28;20401;-71
2021/06/14 05:32:52;;;;;;;;;;;;;;;17.18;100.00;100098.31;5103409;28;19911;-72
2021/06/14 05:35:17;;;;;;;;;;;;;;;17.50;100.00;100096.47;5095006;28;20311;-71
2021/06/14 05:37:43;;;;;;;;;;;;;;;17.86;100.00;100088.81;5098721;28;20006;-71
2021/06/14 05:40:09;;;;;;;;;;;;;;;18.16;100.00;100095.88;5095931;28;19916;-72
2021/06/14 05:42:34;;;;;;;;;;;;;;;18.17;100.00;100092.19;5078983;28;19920;-72
2021/06/14 05:45:00;;;;;;;;;;;;;;;18.37;100.00;100092.53;5097013;28;19939;-72
2021/06/14 05:47:25;;;;;;;;;;;;;;;18.79;100.00;100095.59;5099155;28;19926;-72
2021/06/14 05:52:53;;;;;;;;;;;;;;;19.34;100.00;100081.00;5101065;28;19923;-71
2021/06/14 05:55:19;;;;;;;;;;;;;;;19.61;100.00;100083.91;5096694;28;20291;-71
2021/06/14 05:57:44;;;;;;;;;;;;;;;19.29;100.00;100097.47;5098078;28;19912;-71
2021/06/14 06:00:10;;;;;;;;;;;;;;;19.18;100.00;100083.88;5091096;28;19969;-71
2021/06/14 06:02:35;;;;;;;;;;;;;;;19.48;100.00;100081.97;5100022;28;20349;-72
2021/06/14 06:05:01;;;;;;;;;;;;;;;19.93;100.00;100078.13;5095499;28;19919;-71
2021/06/14 06:07:26;;;;;;;;;;;;;;;20.03;100.00;100086.59;5092596;28;19926;-72
2021/06/14 06:09:52;;;;;;;;;;;;;;;19.58;100.00;100083.28;5097039;28;20366;-74
2021/06/14 06:12:18;;;;;;;;;;;;;;;19.81;100.00;100085.00;5098211;28;19966;-71
2021/06/14 06:14:43;;;;;;;;;;;;;;;19.94;100.00;100071.78;5095192;28;19916;-72
2021/06/14 06:17:08;;;;;;;;;;;;;;;20.23;100.00;100085.97;5098010;28;19916;-73
2021/06/14 06:19:34;;;;;;;;;;;;;;;20.23;100.00;100091.28;5091476;28;20345;-73
2021/06/14 06:21:59;;;;;;;;;;;;;;;19.94;100.00;100084.28;5094990;28;19916;-73
2021/06/14 06:24:25;;;;;;;;;;;;;;;19.61;100.00;100091.88;5095500;28;20006;-71
2021/06/14 06:26:50;;;;;;;;;;;;;;;19.40;100.00;100084.72;5080186;28;19941;-70
2021/06/14 06:29:15;;;;;;;;;;;;;;;19.37;100.00;100091.22;5090667;28;19915;-70
2021/06/14 06:31:40;;;;;;;;;;;;;;;19.77;100.00;100081.88;5099614;28;19983;-69
2021/06/14 06:34:06;;;;;;;;;;;;;;;20.03;100.00;100085.78;5095857;28;20055;-69
2021/06/14 06:36:31;;;;;;;;;;;;;;;19.76;100.00;100076.75;5093293;28;19920;-70
2021/06/14 06:38:57;;;;;;;;;;;;;;;19.93;100.00;100086.09;5093438;28;19976;-69
2021/06/14 06:41:22;;;;;;;;;;;;;;;20.44;100.00;100085.09;5099218;28;19912;-70
2021/06/14 06:43:47;;;;;;;;;;;;;;;20.67;100.00;100079.53;5092917;28;19916;-70
2021/06/14 06:46:13;;;;;;;;;;;;;;;20.70;100.00;100084.47;5099196;28;19912;-70
2021/06/14 06:48:38;;;;;;;;;;;;;;;20.97;100.00;100080.91;5094359;28;19943;-71
2021/06/14 06:51:04;;;;;;;;;;;;;;;20.40;100.00;100074.00;5097500;28;19912;-70
2021/06/14 06:53:29;;;;;;;;;;;;;;;20.79;100.00;100079.78;5096812;28;19947;-71
2021/06/14 06:55:55;;;;;;;;;;;;;;;21.10;100.00;100076.69;5091298;28;20424;-70
2021/06/14 06:58:21;;;;;;;;;;;;;;;21.34;100.00;100062.84;5097294;28;20389;-73
2021/06/14 07:00:48;;;;;;;;;;;;;;;21.51;100.00;100059.81;5093127;28;20018;-70
2021/06/14 07:03:16;;;;;;;;;;;;;;;21.76;100.00;100068.06;5096711;28;20379;-72
2021/06/14 07:05:41;;;;;;;;;;;;;;;21.58;100.00;100060.66;5093398;28;19974;-71
2021/06/14 07:10:51;;;;;;;;;;;;;;;21.72;100.00;100072.97;5094986;28;19922;-70
2021/06/14 07:13:16;;;;;;;;;;;;;;;21.78;100.00;100064.16;5101840;28;19916;-72
2021/06/14 07:15:42;;;;;;;;;;;;;;;21.97;100.00;100064.38;5089895;28;19924;-70
2021/06/14 07:18:07;;;;;;;;;;;;;;;21.65;100.00;100061.47;5099327;28;19919;-73
2021/06/14 07:23:16;;;;;;;;;;;;;;;21.29;100.00;100051.94;5098504;28;20002;-72
2021/06/14 07:25:42;;;;;;;;;;;;;;;21.26;100.00;100025.69;5090028;28;19990;-72
2021/06/14 07:28:07;;;;;;;;;;;;;;;20.98;100.00;100061.25;5089828;28;19920;-73
2021/06/14 07:30:33;;;;;;;;;;;;;;;21.15;100.00;100063.56;5096866;28;19912;-71
2021/06/14 07:32:59;;;;;;;;;;;;;;;21.44;100.00;100060.63;5104390;28;19922;-72
2021/06/14 07:35:25;;;;;;;;;;;;;;;21.89;100.00;100050.22;5079821;28;20019;-71
2021/06/14 07:37:50;;;;;;;;;;;;;;;22.34;100.00;100061.13;5103072;28;19916;-72
2021/06/14 07:40:15;;;;;;;;;;;;;;;22.52;100.00;100057.81;5097417;28;20298;-71
2021/06/14 07:42:41;;;;;;;;;;;;;;;22.77;88.69;100057.94;5095440;28;19955;-72
2021/06/14 07:45:06;;;;;;;;;;;;;;;23.13;89.47;100058.47;5097329;28;19927;-72
2021/06/14 07:47:32;;;;;;;;;;;;;;;23.22;88.13;100057.16;5101235;28;20501;-71
2021/06/14 07:49:57;;;;;;;;;;;;;;;23.24;82.92;100047.91;5097084;28;20318;-71
2021/06/14 07:52:22;;;;;;;;;;;;;;;23.04;80.82;100057.88;5101980;28;19916;-71
2021/06/14 07:57:50;;;;;;;;;;;;;;;22.97;81.66;100059.75;5094967;28;20020;-71
2021/06/14 08:00:16;;;;;;;;;;;;;;;22.78;73.38;100046.25;5099928;28;19980;-72
2021/06/14 08:02:41;;;;;;;;;;;;;;;22.92;77.60;100054.22;5096106;28;20369;-72
2021/06/14 08:05:07;;;;;;;;;;;;;;;23.07;74.61;100054.78;5102791;28;19923;-72
2021/06/14 08:07:33;;;;;;;;;;;;;;;23.33;68.33;100053.84;5095007;28;19923;-71
2021/06/14 08:10:03;;;;;;;;;;;;;;;23.44;64.86;100052.31;5101132;28;19922;-72
2021/06/14 08:12:28;;;;;;;;;;;;;;;23.21;68.55;100055.53;5098020;28;19923;-72
2021/06/14 08:14:54;;;;;;;;;;;;;;;22.62;65.30;100049.38;5095090;28;19912;-72
2021/06/14 08:17:20;;;;;;;;;;;;;;;22.33;69.46;100048.78;5095385;28;19915;-71
2021/06/14 08:25:04;;;;;;;;;;;;;;;23.12;69.52;100040.75;5095482;28;20008;-72
2021/06/14 08:27:33;;;;;;;;;;;;;;;23.37;68.50;100046.19;5095613;28;19927;-71
2021/06/14 08:29:59;;;;;;;;;;;;;;;23.49;61.47;100029.25;5095066;28;19912;-72
2021/06/14 08:32:24;;;;;;;;;;;;;;;23.34;62.20;100032.22;5094764;28;19916;-72
2021/06/14 08:37:34;;;;;;;;;;;;;;;23.46;62.49;100032.38;5094780;28;19915;-71
2021/06/14 08:39:59;;;;;;;;;;;;;;;23.37;62.85;100028.31;5094885;28;19916;-71
2021/06/14 08:42:24;;;;;;;;;;;;;;;22.16;53.64;100016.38;5094719;28;19912;-70
2021/06/14 08:44:50;;;;;;;;;;;;;;;22.42;58.63;100024.56;5094688;28;20006;-69
2021/06/14 08:47:16;;;;;;;;;;;;;;;22.97;56.46;100017.81;5094715;28;19920;-69
2021/06/14 08:49:42;;;;;;;;;;;;;;;23.40;59.75;100021.72;5094860;28;19963;-69
2021/06/14 08:52:08;;;;;;;;;;;;;;;23.44;57.60;100029.06;5094844;28;19919;-69
2021/06/14 08:54:33;;;;;;;;;;;;;;;23.65;54.26;100019.88;5094563;28;19912;-70
2021/06/14 08:56:59;;;;;;;;;;;;;;;23.62;54.85;100024.84;5094562;28;19912;-70
2021/06/14 08:59:25;;;;;;;;;;;;;;;23.09;56.27;100017.97;5094585;28;19918;-70
2021/06/14 09:01:50;;;;;;;;;;;;;;;23.30;57.35;100017.66;5094388;28;20373;-70
2021/06/14 09:04:16;;;;;;;;;;;;;;;23.43;52.20;100022.09;5094205;28;19918;-71
2021/06/14 09:06:42;;;;;;;;;;;;;;;23.60;54.76;100017.03;5094294;28;20279;-70
2021/06/14 09:09:08;;;;;;;;;;;;;;;23.89;53.43;100014.78;5094212;28;20295;-71
2021/06/14 09:11:35;;;;;;;;;;;;;;;24.04;53.89;100012.59;5094201;28;19912;-69
2021/06/14 09:14:01;;;;;;;;;;;;;;;23.80;52.55;100003.56;5094312;28;19912;-71
2021/06/14 09:16:28;;;;;;;;;;;;;;;23.58;50.71;100003.06;5094145;28;19918;-70
2021/06/14 09:18:55;;;;;;;;;;;;;;;22.87;55.25;100007.53;5075938;28;19912;-69
2021/06/14 09:21:20;;;;;;;;;;;;;;;22.82;60.82;100007.38;5094126;28;19912;-69
2021/06/14 09:23:48;;;;;;;;;;;;;;;22.91;60.32;100017.81;5094066;28;20417;-69
2021/06/14 09:26:34;;;;;;;;;;;;;;;22.91;63.20;100017.81;5093978;28;19912;-69
2021/06/14 09:29:04;;;;;;;;;;;;;;;22.95;59.84;100011.88;5093481;28;19920;-69
2021/06/14 09:31:37;;;;;;;;;;;;;;;22.98;64.32;100016.81;5093933;28;20011;-69
2021/06/14 09:34:02;;;;;;;;;;;;;;;23.21;59.38;100008.22;5094058;28;19916;-69
2021/06/14 09:39:14;;;;;;;;;;;;;;;23.48;58.54;99998.19;5093957;28;19927;-69
2021/06/14 09:41:41;;;;;;;;;;;;;;;23.68;55.98;100006.09;5093662;28;20363;-70
2021/06/14 09:44:07;;;;;;;;;;;;;;;23.74;57.54;99997.22;5093651;28;19912;-69
2021/06/14 09:46:33;;;;;;;;;;;;;;;23.92;58.76;100004.47;5093656;28;19923;-70
2021/06/14 09:49:00;;;;;;;;;;;;;;;23.54;60.83;99997.31;5092786;28;19919;-69
2021/06/14 09:51:26;;;;;;;;;;;;;;;23.41;53.22;100001.94;5093522;28;19947;-69
2021/06/14 09:53:53;;;;;;;;;;;;;;;23.53;55.71;100001.03;5093445;28;19997;-70
2021/06/14 09:56:35;;;;;;;;;;;;;;;23.75;54.10;100001.50;5093484;28;19912;-70
2021/06/14 09:59:01;;;;;;;;;;;;;;;23.79;51.54;99997.38;5093505;28;20004;-69
2021/06/14 10:01:30;;;;;;;;;;;;;;;23.97;49.20;99996.59;5093526;28;19969;-71
2021/06/14 10:03:57;;;;;;;;;;;;;;;24.03;50.04;100005.63;5093375;28;19919;-70
2021/06/14 10:06:29;;;;;;;;;;;;;;;24.04;50.96;100009.94;5093141;28;19916;-70
2021/06/14 10:08:55;;;;;;;;;;;;;;;23.56;54.88;100015.84;5093216;28;20400;-69
2021/06/14 10:11:20;;;;;;;;;;;;;;;22.93;54.86;100018.47;5093352;28;20014;-69
2021/06/14 10:13:49;;;;;;;;;;;;;;;22.55;57.75;100014.66;5093402;28;19919;-69
2021/06/14 10:16:22;;;;;;;;;;;;;;;22.37;59.59;100025.16;5093085;28;20006;-69
2021/06/14 10:18:55;;;;;;;;;;;;;;;22.24;60.72;100030.53;5093407;28;19912;-69
2021/06/14 10:21:29;;;;;;;;;;;;;;;22.21;60.17;100022.94;5093132;28;19912;-69
2021/06/14 10:23:57;;;;;;;;;;;;;;;21.82;60.47;100025.38;5093206;28;20306;-69
2021/06/14 10:26:24;;;;;;;;;;;;;;;21.78;59.84;100026.81;5092979;28;19956;-69
2021/06/14 10:28:49;;;;;;;;;;;;;;;21.78;63.44;100026.81;5093020;28;19920;-70
2021/06/14 10:31:15;;;;;;;;;;;;;;;21.10;60.79;100016.22;5092932;28;20440;-69
2021/06/14 10:33:41;;;;;;;;;;;;;;;20.49;61.51;100013.47;5093337;28;19918;-69
2021/06/14 10:36:08;;;;;;;;;;;;;;;20.37;62.29;100015.84;5093176;28;20351;-69
2021/06/14 10:38:36;;;;;;;;;;;;;;;20.58;63.90;100014.16;5092788;28;19916;-69
2021/06/14 10:41:02;;;;;;;;;;;;;;;20.65;64.32;100018.47;5092803;28;20003;-69
2021/06/14 10:43:28;;;;;;;;;;;;;;;20.86;65.60;100020.25;5092855;28;19950;-69
2021/06/14 10:45:54;;;;;;;;;;;;;;;20.38;67.75;100021.97;5092725;28;19969;-69
2021/06/14 10:48:25;;;;;;;;;;;;;;;19.80;72.43;100022.16;5093372;28;19912;-70
2021/06/14 10:50:51;;;;;;;;;;;;;;;19.39;74.91;100012.16;5092767;28;20508;-69
2021/06/14 10:53:24;;;;;;;;;;;;;;;19.15;75.07;100012.50;5092632;28;19916;-69
2021/06/14 10:55:50;;;;;;;;;;;;;;;19.04;82.58;100012.00;5092772;28;19919;-69
2021/06/14 10:58:16;;;;;;;;;;;;;;;19.01;76.65;99995.59;5092819;28;19912;-69
2021/06/14 11:00:41;;;;;;;;;;;;;;;18.73;80.57;99990.16;5096494;28;19922;-70
2021/06/14 11:03:12;;;;;;;;;;;;;;;18.67;84.26;99990.88;5096805;28;19990;-70
2021/06/14 11:05:45;;;;;;;;;;;;;;;18.61;84.01;99990.59;5079005;28;20294;-70
2021/06/14 11:08:10;;;;;;;;;;;;;;;18.68;88.17;99992.50;5096572;28;20018;-69
2021/06/14 11:10:36;;;;;;;;;;;;;;;18.72;88.82;99988.50;5096753;28;19912;-69
2021/06/14 11:13:38;;;;;;;;;;;;;;;18.58;87.02;99982.19;5096485;28;19912;-70
2021/06/14 11:16:05;;;;;;;;;;;;;;;18.68;87.82;99971.28;5096569;28;19919;-69
2021/06/14 11:18:31;;;;;;;;;;;;;;;18.74;88.61;99968.75;5096669;28;19916;-69
2021/06/14 11:21:09;;;;;;;;;;;;;;;18.69;88.44;99962.31;5096416;28;19912;-69
2021/06/14 11:23:34;;;;;;;;;;;;;;;18.71;87.07;99960.31;5096320;28;19912;-69
2021/06/14 11:25:59;;;;;;;;;;;;;;;18.67;92.26;99951.06;5096041;28;19935;-70
2021/06/14 11:28:32;;;;;;;;;;;;;;;18.83;86.73;99956.16;5096292;28;19920;-70
2021/06/14 11:30:58;;;;;;;;;;;;;;;18.85;87.77;99951.50;5096480;28;20282;-69
2021/06/14 11:33:37;;;;;;;;;;;;;;;18.74;90.24;99954.66;5096239;28;19912;-69
2021/06/14 11:36:11;;;;;;;;;;;;;;;18.76;93.07;99961.41;5096011;28;19916;-70
2021/06/14 11:38:37;;;;;;;;;;;;;;;18.74;90.13;99957.31;5096104;28;19916;-69
2021/06/14 11:41:02;;;;;;;;;;;;;;;18.68;91.14;99960.66;5096283;28;19916;-70
2021/06/14 11:43:27;;;;;;;;;;;;;;;18.87;90.28;99955.63;5077819;28;20315;-70
2021/06/14 11:45:54;;;;;;;;;;;;;;;18.88;86.24;99953.78;5095988;28;19918;-70
2021/06/14 11:48:22;;;;;;;;;;;;;;;19.02;84.14;99958.22;5095874;28;19984;-70
2021/06/14 11:50:47;;;;;;;;;;;;;;;19.16;89.91;99958.38;5095589;28;19958;-70
2021/06/14 11:53:13;;;;;;;;;;;;;;;19.19;90.42;99961.47;5095816;28;19963;-71
2021/06/14 11:55:40;;;;;;;;;;;;;;;19.15;84.71;99956.75;5095862;28;20405;-70
2021/06/14 11:58:07;;;;;;;;;;;;;;;19.35;87.14;99957.75;5095598;28;20307;-71
2021/06/14 12:00:34;;;;;;;;;;;;;;;19.48;74.14;99962.38;5077507;28;19958;-71
2021/06/14 12:03:00;;;;;;;;;;;;;;;19.71;75.74;99959.50;5077364;28;20007;-72
2021/06/14 12:05:30;;;;;;;;;;;;;;;19.80;80.70;99950.38;5095545;28;20069;-71
2021/06/14 12:07:55;;;;;;;;;;;;;;;19.93;76.92;99947.00;5095736;28;20378;-71
2021/06/14 12:10:21;;;;;;;;;;;;;;;20.16;77.42;99949.41;5095074;28;19912;-71
2021/06/14 12:12:59;;;;;;;;;;;;;;;20.26;71.90;99940.06;5077012;28;20349;-71
2021/06/14 12:15:24;;;;;;;;;;;;;;;20.42;68.24;99930.09;5095688;28;19912;-72
2021/06/14 12:17:51;;;;;;;;;;;;;;;20.33;64.40;99932.09;5095384;28;19918;-71
2021/06/14 12:20:21;;;;;;;;;;;;;;;20.42;66.12;99930.09;5095167;28;20390;-72
2021/06/14 12:22:46;;;;;;;;;;;;;;;20.63;69.17;99919.38;5095242;28;19916;-71
2021/06/14 12:25:12;;;;;;;;;;;;;;;20.61;63.83;99915.25;5095325;28;19916;-71
2021/06/14 12:27:38;;;;;;;;;;;;;;;20.68;62.23;99918.75;5095219;28;20012;-72
2021/06/14 12:30:06;;;;;;;;;;;;;;;20.86;60.49;99907.56;5095134;28;20002;-71
2021/06/14 12:32:33;;;;;;;;;;;;;;;21.01;57.26;99902.06;5095078;28;19999;-71
2021/06/14 12:34:59;;;;;;;;;;;;;;;20.92;58.13;99899.59;5095130;28;20006;-71
2021/06/14 12:37:25;;;;;;;;;;;;;;;21.03;58.44;99894.69;5077028;28;20302;-71
2021/06/14 12:39:56;;;;;;;;;;;;;;;21.26;61.49;99895.09;5094717;28;19916;-71
2021/06/14 12:42:22;;;;;;;;;;;;;;;21.48;64.79;99900.28;5094860;28;19915;-71
2021/06/14 12:45:11;;;;;;;;;;;;;;;21.80;60.72;99898.59;5094773;28;19934;-71
2021/06/14 12:47:45;;;;;;;;;;;;;;;21.79;57.68;99895.09;5084153;28;20004;-71
2021/06/14 12:50:15;;;;;;;;;;;;;;;21.62;52.44;99891.22;5094639;28;19918;-71
2021/06/14 12:52:40;;;;;;;;;;;;;;;21.40;54.37;99888.78;5094659;28;19912;-71
2021/06/14 12:55:06;;;;;;;;;;;;;;;21.44;54.82;99890.03;5094380;28;19918;-71
2021/06/14 12:57:35;;;;;;;;;;;;;;;21.30;59.04;99888.34;5094735;28;19919;-71
2021/06/14 13:00:01;;;;;;;;;;;;;;;21.13;60.37;99887.94;5095020;28;19918;-70
2021/06/14 13:02:27;;;;;;;;;;;;;;;21.05;59.36;99889.97;5094504;28;19912;-71